createdAt,value
2022-10-13T00:01:21.981Z,102550.02
2022-10-13T00:03:50.868Z,102551.50
2022-10-13T00:06:26.586Z,102547.40
2022-10-13T00:08:56.746Z,102542.08
2022-10-13T00:11:29.949Z,102539.89
2022-10-13T00:14:00.796Z,102543.30
2022-10-13T00:16:31.358Z,102541.41
2022-10-13T00:18:59.667Z,102543.09
2022-10-13T00:21:28.468Z,102543.48
2022-10-13T00:23:57.446Z,102544.88
2022-10-13T00:26:26.605Z,102546.79
2022-10-13T00:28:56.562Z,102550.23
2022-10-13T00:31:32.361Z,102550.73
2022-10-13T00:34:01.503Z,102552.63
2022-10-13T00:36:33.158Z,102550.63
2022-10-13T00:39:01.200Z,102546.17
2022-10-13T00:41:29.362Z,102544.16
2022-10-13T00:44:01.734Z,102540.89
2022-10-13T00:46:35.981Z,102544.44
2022-10-13T00:49:17.274Z,102540.14
2022-10-13T00:51:50.362Z,102541.33
2022-10-13T00:54:23.039Z,102541.48
2022-10-13T00:56:52.201Z,102538.83
2022-10-13T00:59:23.798Z,102539.02
2022-10-13T01:01:55.131Z,102541.74
2022-10-13T01:04:27.099Z,102539.55
2022-10-13T01:06:56.914Z,102542.55
2022-10-13T01:09:25.078Z,102542.45
2022-10-13T01:12:19.615Z,102541.10
2022-10-13T01:15:06.894Z,102546.79
2022-10-13T01:17:50.013Z,102544.96
2022-10-13T01:20:17.899Z,102541.44
2022-10-13T01:22:56.168Z,102538.29
2022-10-13T01:25:39.310Z,102541.21
2022-10-13T01:28:35.274Z,102539.11
2022-10-13T01:31:19.432Z,102538.13
2022-10-13T01:33:57.798Z,102541.14
2022-10-13T01:36:50.759Z,102538.95
2022-10-13T01:39:30.291Z,102531.36
2022-10-13T01:42:11.673Z,102526.46
2022-10-13T01:44:46.502Z,102523.80
2022-10-13T01:47:17.851Z,102525.01
2022-10-13T01:49:47.805Z,102524.81
2022-10-13T01:52:20.595Z,102522.56
2022-10-13T01:54:53.119Z,102518.20
2022-10-13T01:57:47.405Z,102516.95
2022-10-13T02:00:19.060Z,102513.19
2022-10-13T02:03:08.836Z,102511.58
2022-10-13T02:06:22.590Z,102511.90
2022-10-13T02:09:14.409Z,102508.00
2022-10-13T02:11:51.749Z,102508.17
2022-10-13T02:14:26.622Z,102501.90
2022-10-13T02:16:59.592Z,102506.98
2022-10-13T02:19:28.922Z,102504.48
2022-10-13T02:21:58.482Z,102504.95
2022-10-13T02:24:26.891Z,102501.47
2022-10-13T02:26:55.275Z,102501.44
2022-10-13T02:29:23.648Z,102502.09
2022-10-13T02:31:54.936Z,102496.64
2022-10-13T02:34:23.023Z,102493.11
2022-10-13T02:36:50.934Z,102493.91
2022-10-13T02:39:18.900Z,102493.65
2022-10-13T02:41:46.867Z,102494.07
2022-10-13T02:44:14.841Z,102490.45
2022-10-13T02:46:42.806Z,102491.52
2022-10-13T02:49:11.091Z,102487.23
2022-10-13T02:51:40.368Z,102485.58
2022-10-13T02:54:08.861Z,102491.54
2022-10-13T02:56:36.836Z,102490.55
2022-10-13T02:59:04.903Z,102484.96
2022-10-13T03:01:33.259Z,102484.45
2022-10-13T03:04:01.244Z,102478.34
2022-10-13T03:06:29.148Z,102480.56
2022-10-13T03:08:57.100Z,102481.98
2022-10-13T03:11:25.936Z,102481.88
2022-10-13T03:13:54.447Z,102478.98
2022-10-13T03:16:22.426Z,102476.98
2022-10-13T03:18:50.621Z,102471.98
2022-10-13T03:21:18.562Z,102472.04
2022-10-13T03:23:46.534Z,102465.14
2022-10-13T03:26:15.725Z,102469.39
2022-10-13T03:28:43.892Z,102468.36
2022-10-13T03:31:12.942Z,102467.63
2022-10-13T03:33:41.264Z,102471.77
2022-10-13T03:36:10.769Z,102465.98
2022-10-13T03:38:39.717Z,102465.66
2022-10-13T03:41:15.579Z,102461.85
2022-10-13T03:43:45.600Z,102462.77
2022-10-13T03:46:17.491Z,102463.01
2022-10-13T03:48:47.637Z,102456.77
2022-10-13T03:51:19.435Z,102456.83
2022-10-13T03:53:48.878Z,102455.66
2022-10-13T03:56:20.113Z,102457.92
2022-10-13T03:59:00.073Z,102454.64
2022-10-13T04:01:29.945Z,102456.94
2022-10-13T04:03:59.296Z,102458.00
2022-10-13T04:06:27.349Z,102459.08
2022-10-13T04:08:55.725Z,102456.71
2022-10-13T04:11:24.004Z,102458.84
2022-10-13T04:13:53.377Z,102452.05
2022-10-13T04:16:24.139Z,102452.46
2022-10-13T04:18:57.741Z,102452.48
2022-10-13T04:21:26.934Z,102452.71
2022-10-13T04:23:59.941Z,102450.70
2022-10-13T04:26:30.183Z,102447.98
2022-10-13T04:28:59.143Z,102448.89
2022-10-13T04:31:29.426Z,102442.84
2022-10-13T04:33:58.244Z,102443.23
2022-10-13T04:36:27.127Z,102443.77
2022-10-13T04:38:55.999Z,102444.44
2022-10-13T04:41:24.301Z,102438.46
2022-10-13T04:43:53.470Z,102441.77
2022-10-13T04:46:25.637Z,102440.53
2022-10-13T04:48:55.809Z,102439.15
2022-10-13T04:51:27.391Z,102441.30
2022-10-13T04:53:59.397Z,102439.31
2022-10-13T04:56:28.253Z,102442.34
2022-10-13T04:59:00.868Z,102445.02
2022-10-13T05:01:28.830Z,102445.29
2022-10-13T05:04:02.240Z,102447.08
2022-10-13T05:06:34.699Z,102448.52
2022-10-13T05:09:04.099Z,102451.19
2022-10-13T05:11:33.096Z,102455.04
2022-10-13T05:14:02.699Z,102453.16
2022-10-13T05:16:31.386Z,102450.94
2022-10-13T05:18:59.454Z,102445.92
2022-10-13T05:21:29.128Z,102446.85
2022-10-13T05:23:58.507Z,102446.71
2022-10-13T05:26:29.355Z,102443.59
2022-10-13T05:29:01.158Z,102443.42
2022-10-13T05:31:34.770Z,102446.19
2022-10-13T05:34:03.004Z,102443.39
2022-10-13T05:36:33.575Z,102441.81
2022-10-13T05:39:04.691Z,102442.13
2022-10-13T05:41:32.674Z,102439.87
2022-10-13T05:44:07.275Z,102438.66
2022-10-13T05:46:36.097Z,102433.60
2022-10-13T05:49:04.814Z,102431.19
2022-10-13T05:51:40.214Z,102430.48
2022-10-13T05:54:30.254Z,102429.09
2022-10-13T05:57:06.943Z,102429.94
2022-10-13T05:59:40.797Z,102428.03
2022-10-13T06:02:12.561Z,102427.88
2022-10-13T06:04:46.520Z,102428.40
2022-10-13T06:07:14.595Z,102429.45
2022-10-13T06:09:43.379Z,102428.10
2022-10-13T06:12:11.371Z,102428.51
2022-10-13T06:14:40.053Z,102425.78
2022-10-13T06:17:11.197Z,102426.02
2022-10-13T06:19:39.790Z,102425.02
2022-10-13T06:22:09.064Z,102423.89
2022-10-13T06:24:37.316Z,102425.54
2022-10-13T06:27:06.549Z,102423.81
2022-10-13T06:29:34.580Z,102422.66
2022-10-13T06:32:02.588Z,102423.09
2022-10-13T06:34:30.560Z,102420.69
2022-10-13T06:36:58.531Z,102421.77
2022-10-13T06:39:26.699Z,102418.70
2022-10-13T06:41:55.562Z,102415.11
2022-10-13T06:44:32.498Z,102412.55
2022-10-13T06:47:05.324Z,102408.45
2022-10-13T06:49:33.528Z,102409.92
2022-10-13T06:52:01.697Z,102409.66
2022-10-13T06:54:29.870Z,102407.25
2022-10-13T06:56:58.041Z,102403.98
2022-10-13T06:59:27.875Z,102402.42
2022-10-13T07:01:55.936Z,102404.34
2022-10-13T07:04:26.042Z,102397.89
2022-10-13T07:06:56.224Z,102404.04
2022-10-13T07:09:24.537Z,102400.05
2022-10-13T07:11:52.507Z,102407.06
2022-10-13T07:14:20.476Z,102409.21
2022-10-13T07:16:48.757Z,102405.80
2022-10-13T07:19:16.726Z,102396.80
2022-10-13T07:21:44.813Z,102398.29
2022-10-13T07:24:13.064Z,102395.73
2022-10-13T07:26:41.028Z,102396.13
2022-10-13T07:29:09.882Z,102390.95
2022-10-13T07:31:37.991Z,102392.27
2022-10-13T07:34:06.858Z,102389.59
2022-10-13T07:36:35.638Z,102389.73
2022-10-13T07:39:04.350Z,102384.62
2022-10-13T07:41:32.732Z,102382.81
2022-10-13T07:44:00.798Z,102378.89
2022-10-13T07:46:29.895Z,102378.63
2022-10-13T07:48:58.381Z,102380.10
2022-10-13T07:51:26.445Z,102379.63
2022-10-13T07:53:54.717Z,102375.66
2022-10-13T07:56:22.688Z,102363.75
2022-10-13T07:58:50.556Z,102359.02
2022-10-13T08:01:18.564Z,102357.59
2022-10-13T08:03:49.937Z,102352.67
2022-10-13T08:06:19.488Z,102351.98
2022-10-13T08:08:48.777Z,102354.91
2022-10-13T08:11:18.391Z,102351.91
2022-10-13T08:13:49.014Z,102353.50
2022-10-13T08:16:22.613Z,102349.84
2022-10-13T08:18:50.789Z,102344.05
2022-10-13T08:24:14.052Z,102333.89
2022-10-13T08:26:43.228Z,102335.14
2022-10-13T08:29:27.242Z,102337.96
2022-10-13T08:31:56.131Z,102337.11
2022-10-13T08:34:25.058Z,102331.91
2022-10-13T08:36:54.837Z,102331.25
2022-10-13T08:39:24.629Z,102326.40
2022-10-13T08:41:54.484Z,102322.39
2022-10-13T08:45:06.260Z,102314.55
2022-10-13T08:47:27.324Z,102314.38
2022-10-13T08:50:04.095Z,102312.29
2022-10-13T08:53:04.646Z,102310.38
2022-10-13T08:55:51.125Z,102313.56
2022-10-13T08:58:25.887Z,102313.61
2022-10-13T09:01:09.186Z,102306.83
2022-10-13T09:03:57.222Z,102301.59
2022-10-13T09:06:34.009Z,102295.81
2022-10-13T09:09:07.047Z,102291.09
2022-10-13T09:11:41.105Z,102286.73
2022-10-13T09:14:12.957Z,102287.10
2022-10-13T09:16:44.300Z,102284.13
2022-10-13T09:19:21.081Z,102280.10
2022-10-13T09:21:55.967Z,102279.95
2022-10-13T09:24:26.285Z,102279.45
2022-10-13T09:27:07.252Z,102281.58
2022-10-13T09:29:40.463Z,102280.35
2022-10-13T09:32:14.395Z,102277.38
2022-10-13T09:34:43.196Z,102277.73
2022-10-13T09:37:21.393Z,102273.02
2022-10-13T09:40:13.629Z,102267.59
2022-10-13T09:42:41.705Z,102266.71
2022-10-13T09:45:21.755Z,102261.46
2022-10-13T09:47:54.636Z,102265.32
2022-10-13T09:50:26.086Z,102265.15
2022-10-13T09:53:31.431Z,102264.99
2022-10-13T09:56:08.821Z,102267.45
2022-10-13T10:01:27.692Z,102255.70
2022-10-13T10:03:57.715Z,102250.61
2022-10-13T10:06:27.830Z,102254.48
2022-10-13T10:09:45.151Z,102252.03
2022-10-13T10:12:18.240Z,102249.05
2022-10-13T10:14:48.564Z,102249.08
2022-10-13T10:17:28.615Z,102242.58
2022-10-13T10:20:34.790Z,102243.29
2022-10-13T10:23:21.284Z,102241.52
2022-10-13T10:25:54.271Z,102239.59
2022-10-13T10:29:01.918Z,102242.92
2022-10-13T10:31:35.666Z,102240.11
2022-10-13T10:34:14.836Z,102235.90
2022-10-13T10:36:51.058Z,102239.75
2022-10-13T10:39:36.913Z,102231.67
2022-10-13T10:42:17.863Z,102228.13
2022-10-13T10:44:49.370Z,102217.55
2022-10-13T10:48:12.131Z,102209.27
2022-10-13T10:50:40.259Z,102210.66
2022-10-13T10:53:29.661Z,102210.63
2022-10-13T10:56:17.188Z,102210.10
2022-10-13T10:59:00.415Z,102202.90
2022-10-13T11:01:37.887Z,102205.02
2022-10-13T11:04:21.034Z,102196.77
2022-10-13T11:06:49.107Z,102196.21
2022-10-13T11:09:42.973Z,102190.93
2022-10-13T11:12:20.247Z,102187.77
2022-10-13T11:14:54.947Z,102181.25
2022-10-13T11:17:31.605Z,102175.95
2022-10-13T11:20:00.536Z,102168.91
2022-10-13T11:22:30.290Z,102164.14
2022-10-13T11:25:08.281Z,102164.11
2022-10-13T11:27:36.234Z,102166.55
2022-10-13T11:30:05.172Z,102164.25
2022-10-13T11:32:41.996Z,102163.52
2022-10-13T11:35:10.790Z,102164.08
2022-10-13T11:38:06.815Z,102159.19
2022-10-13T11:40:55.564Z,102157.64
2022-10-13T11:43:42.375Z,102150.96
2022-10-13T11:46:46.184Z,102145.51
2022-10-13T11:49:36.270Z,102132.50
2022-10-13T11:52:39.874Z,102126.34
2022-10-13T11:55:42.757Z,102130.57
2022-10-13T11:58:14.863Z,102133.40
2022-10-13T12:01:06.867Z,102128.66
2022-10-13T12:03:43.636Z,102123.77
2022-10-13T12:06:34.339Z,102116.21
2022-10-13T12:09:16.235Z,102113.42
2022-10-13T12:11:44.923Z,102111.48
2022-10-13T12:14:24.362Z,102109.35
2022-10-13T12:16:54.291Z,102102.83
2022-10-13T12:19:25.916Z,102099.29
2022-10-13T12:21:56.559Z,102100.83
2022-10-13T12:24:28.202Z,102097.11
2022-10-13T12:26:57.699Z,102097.44
2022-10-13T12:29:34.857Z,102102.35
2022-10-13T12:32:19.856Z,102097.25
2022-10-13T12:34:48.539Z,102092.86
2022-10-13T12:37:33.577Z,102092.89
2022-10-13T12:40:02.612Z,102088.20
2022-10-13T12:42:33.130Z,102086.10
2022-10-13T12:45:02.530Z,102083.45
2022-10-13T12:47:49.750Z,102085.21
2022-10-13T12:50:29.905Z,102080.99
2022-10-13T12:53:22.261Z,102080.27
2022-10-13T12:56:02.195Z,102074.45
2022-10-13T12:58:35.814Z,102074.77
2022-10-13T13:01:21.231Z,102069.83
2022-10-13T13:03:56.240Z,102068.94
2022-10-13T13:06:30.488Z,102074.04
2022-10-13T13:09:31.809Z,102072.36
2022-10-13T13:12:10.498Z,102068.41
2022-10-13T13:14:39.786Z,102063.56
2022-10-13T13:17:07.661Z,102063.57
2022-10-13T13:19:36.653Z,102061.61
2022-10-13T13:22:06.374Z,102062.70
2022-10-13T13:24:40.079Z,102063.18
2022-10-13T13:27:36.566Z,102058.85
2022-10-13T13:30:09.896Z,102054.60
2022-10-13T13:32:37.884Z,102050.45
2022-10-13T13:35:06.520Z,102046.98
2022-10-13T13:37:40.447Z,102045.09
2022-10-13T13:40:16.299Z,102042.59
2022-10-13T13:42:44.373Z,102042.34
2022-10-13T13:45:14.386Z,102043.09
2022-10-13T13:47:43.136Z,102043.84
2022-10-13T13:50:27.012Z,102046.80
2022-10-13T13:52:58.566Z,102043.70
2022-10-13T13:55:27.863Z,102045.08
2022-10-13T13:57:57.061Z,102046.59
2022-10-13T14:00:25.134Z,102039.73
2022-10-13T14:02:57.713Z,102042.39
2022-10-13T14:05:26.100Z,102042.13
2022-10-13T14:07:58.184Z,102043.08
2022-10-13T14:10:26.936Z,102046.52
2022-10-13T14:12:54.905Z,102049.55
2022-10-13T14:15:27.259Z,102047.13
2022-10-13T14:17:57.088Z,102044.62
2022-10-13T14:20:24.955Z,102038.25
2022-10-13T14:22:52.925Z,102038.67
2022-10-13T14:25:21.199Z,102037.27
2022-10-13T14:27:49.164Z,102037.99
2022-10-13T14:30:17.234Z,102037.64
2022-10-13T14:32:45.205Z,102033.08
2022-10-13T14:35:13.170Z,102033.71
2022-10-13T14:37:41.141Z,102034.06
2022-10-13T14:40:09.610Z,102033.88
2022-10-13T14:42:39.429Z,102031.80
2022-10-13T14:45:09.349Z,102032.45
2022-10-13T14:47:37.213Z,102029.04
2022-10-13T14:50:06.101Z,102027.32
2022-10-13T14:52:34.276Z,102022.09
2022-10-13T14:55:02.385Z,102023.97
2022-10-13T14:57:30.423Z,102018.84
2022-10-13T15:00:01.874Z,102017.41
2022-10-13T15:02:31.066Z,102012.08
2022-10-13T15:04:59.054Z,102011.26
2022-10-13T15:07:27.099Z,102011.31
2022-10-13T15:10:04.858Z,102007.61
2022-10-13T15:12:34.299Z,102004.10
2022-10-13T15:15:02.885Z,102001.51
2022-10-13T15:17:33.313Z,102004.82
2022-10-13T15:20:01.277Z,102004.60
2022-10-13T15:22:29.242Z,102007.33
2022-10-13T15:24:57.522Z,102008.12
2022-10-13T15:27:25.695Z,102005.40
2022-10-13T15:29:53.662Z,102002.48
2022-10-13T15:32:21.968Z,102000.98
2022-10-13T15:34:56.049Z,101999.25
2022-10-13T15:37:24.119Z,101998.08
2022-10-13T15:39:56.853Z,101996.19
2022-10-13T15:42:25.586Z,101995.86
2022-10-13T15:45:10.751Z,101995.89
2022-10-13T15:47:39.340Z,101994.35
2022-10-13T15:50:09.574Z,101993.48
2022-10-13T15:52:40.354Z,101991.39
2022-10-13T15:55:10.823Z,101995.95
2022-10-13T15:57:38.994Z,101995.60
2022-10-13T16:00:08.783Z,102002.61
2022-10-13T16:02:44.150Z,101999.28
2022-10-13T16:05:13.194Z,101993.11
2022-10-13T16:07:41.655Z,101988.54
2022-10-13T16:10:12.435Z,101989.77
2022-10-13T16:12:45.479Z,101987.65
2022-10-13T16:15:18.221Z,101987.98
2022-10-13T16:17:46.541Z,101989.38
2022-10-13T16:20:14.567Z,101992.87
2022-10-13T16:22:42.543Z,101998.80
2022-10-13T16:25:12.193Z,101999.85
2022-10-13T16:27:44.026Z,102000.71
2022-10-13T16:30:12.977Z,101999.48
2022-10-13T16:32:41.398Z,101997.36
2022-10-13T16:35:10.089Z,102002.60
2022-10-13T16:37:38.229Z,101999.79
2022-10-13T16:40:06.709Z,101999.77
2022-10-13T16:42:34.986Z,101999.77
2022-10-13T16:45:03.668Z,102000.64
2022-10-13T16:47:31.738Z,102001.33
2022-10-13T16:49:59.710Z,102001.49
2022-10-13T16:52:27.578Z,101998.69
2022-10-13T16:54:55.540Z,102000.42
2022-10-13T16:57:25.661Z,102001.29
2022-10-13T16:59:53.790Z,101996.21
2022-10-13T17:02:21.907Z,101995.85
2022-10-13T17:04:50.076Z,101995.48
2022-10-13T17:07:18.348Z,101998.43
2022-10-13T17:09:47.555Z,101997.73
2022-10-13T17:12:15.618Z,101997.18
2022-10-13T17:14:43.592Z,101997.53
2022-10-13T17:17:11.560Z,101996.83
2022-10-13T17:19:39.471Z,101995.95
2022-10-13T17:22:07.389Z,101993.84
2022-10-13T17:24:35.360Z,101996.63
2022-10-13T17:27:03.328Z,101996.45
2022-10-13T17:29:31.395Z,101995.92
2022-10-13T17:31:59.366Z,101993.30
2022-10-13T17:34:27.333Z,101990.50
2022-10-13T17:36:55.515Z,101993.83
2022-10-13T17:39:23.785Z,101991.73
2022-10-13T17:41:51.751Z,101989.64
2022-10-13T17:44:21.051Z,101987.37
2022-10-13T17:46:52.529Z,101984.73
2022-10-13T17:49:20.569Z,101985.08
2022-10-13T17:51:52.429Z,101986.81
2022-10-13T17:54:21.424Z,101984.89
2022-10-13T17:56:49.551Z,101988.56
2022-10-13T17:59:18.338Z,101981.73
2022-10-13T18:01:46.512Z,101978.56
2022-10-13T18:04:17.189Z,101980.66
2022-10-13T18:06:45.760Z,101979.43
2022-10-13T18:09:17.939Z,101981.01
2022-10-13T18:11:50.771Z,101982.56
2022-10-13T18:14:21.577Z,101980.27
2022-10-13T18:16:51.470Z,101980.96
2022-10-13T18:19:21.405Z,101980.96
2022-10-13T18:21:49.860Z,101980.61
2022-10-13T18:24:17.927Z,101978.16
2022-10-13T18:26:46.528Z,101975.54
2022-10-13T18:29:14.582Z,101975.72
2022-10-13T18:31:42.980Z,101977.46
2022-10-13T18:34:14.251Z,101972.04
2022-10-13T18:36:47.806Z,101970.30
2022-10-13T18:39:25.245Z,101972.20
2022-10-13T18:41:55.839Z,101966.08
2022-10-13T18:44:27.279Z,101964.86
2022-10-13T18:46:56.650Z,101966.27
2022-10-13T18:49:31.333Z,101966.27
2022-10-13T18:52:01.031Z,101963.29
2022-10-13T18:54:30.383Z,101963.46
2022-10-13T18:56:58.686Z,101966.80
2022-10-13T18:59:26.761Z,101965.06
2022-10-13T19:01:54.723Z,101966.65
2022-10-13T19:04:23.104Z,101968.38
2022-10-13T19:06:51.789Z,101967.69
2022-10-13T19:09:21.662Z,101967.66
2022-10-13T19:11:49.672Z,101961.02
2022-10-13T19:14:19.175Z,101962.06
2022-10-13T19:16:47.140Z,101957.50
2022-10-13T19:19:15.320Z,101956.27
2022-10-13T19:21:43.488Z,101955.75
2022-10-13T19:24:12.103Z,101950.69
2022-10-13T19:26:40.041Z,101950.52
2022-10-13T19:29:11.618Z,101940.05
2022-10-13T19:31:41.532Z,101936.91
2022-10-13T19:34:11.625Z,101936.02
2022-10-13T19:36:43.061Z,101933.38
2022-10-13T19:39:23.638Z,101939.14
2022-10-13T19:41:54.241Z,101939.25
2022-10-13T19:44:24.081Z,101938.20
2022-10-13T19:46:53.459Z,101936.09
2022-10-13T19:49:25.174Z,101937.15
2022-10-13T19:51:54.148Z,101933.83
2022-10-13T19:54:23.276Z,101930.50
2022-10-13T19:56:51.466Z,101930.67
2022-10-13T19:59:19.912Z,101927.70
2022-10-13T20:01:48.464Z,101925.42
2022-10-13T20:04:18.712Z,101932.42
2022-10-13T20:06:48.292Z,101932.06
2022-10-13T20:09:18.035Z,101930.12
2022-10-13T20:11:47.805Z,101933.44
2022-10-13T20:14:17.572Z,101935.70
2022-10-13T20:16:45.996Z,101927.64
2022-10-13T20:19:16.317Z,101926.22
2022-10-13T20:21:48.196Z,101922.53
2022-10-13T20:24:16.247Z,101922.00
2022-10-13T20:26:44.217Z,101920.23
2022-10-13T20:29:12.273Z,101919.67
2022-10-13T20:31:40.462Z,101918.09
2022-10-13T20:34:10.733Z,101917.18
2022-10-13T20:36:39.423Z,101918.71
2022-10-13T20:39:09.073Z,101915.36
2022-10-13T20:41:37.253Z,101913.94
2022-10-13T20:44:06.241Z,101911.83
2022-10-13T20:46:34.926Z,101908.13
2022-10-13T20:49:13.010Z,101912.32
2022-10-13T20:51:43.103Z,101901.45
2022-10-13T20:54:13.825Z,101898.13
2022-10-13T20:56:41.969Z,101902.83
2022-10-13T20:59:12.588Z,101902.63
2022-10-13T21:01:40.756Z,101898.42
2022-10-13T21:04:09.646Z,101899.29
2022-10-13T21:06:38.105Z,101897.88
2022-10-13T21:09:06.929Z,101894.36
2022-10-13T21:11:36.729Z,101895.55
2022-10-13T21:14:07.135Z,101891.16
2022-10-13T21:16:38.432Z,101892.54
2022-10-13T21:19:10.051Z,101892.34
2022-10-13T21:21:38.341Z,101888.48
2022-10-13T21:24:07.898Z,101887.77
2022-10-13T21:26:36.440Z,101887.04
2022-10-13T21:29:04.893Z,101887.90
2022-10-13T21:31:35.619Z,101881.96
2022-10-13T21:34:04.131Z,101888.06
2022-10-13T21:36:33.090Z,101887.01
2022-10-13T21:39:04.103Z,101885.77
2022-10-13T21:41:34.460Z,101884.02
2022-10-13T21:44:03.364Z,101886.61
2022-10-13T21:46:35.337Z,101882.06
2022-10-13T21:49:05.820Z,101888.01
2022-10-13T21:51:36.477Z,101884.34
2022-10-13T21:54:13.661Z,101882.23
2022-10-13T21:56:42.358Z,101876.45
2022-10-13T21:59:12.770Z,101875.05
2022-10-13T22:01:41.832Z,101869.99
2022-10-13T22:04:14.847Z,101868.21
2022-10-13T22:06:43.207Z,101867.86
2022-10-13T22:09:11.397Z,101869.60
2022-10-13T22:11:39.818Z,101865.58
2022-10-13T22:14:13.999Z,101872.02
2022-10-13T22:16:48.306Z,101866.94
2022-10-13T22:19:18.294Z,101868.32
2022-10-13T22:21:48.641Z,101867.96
2022-10-13T22:24:19.688Z,101866.21
2022-10-13T22:26:49.706Z,101864.63
2022-10-13T22:29:20.705Z,101868.31
2022-10-13T22:31:50.760Z,101873.38
2022-10-13T22:34:18.750Z,101875.81
2022-10-13T22:36:46.697Z,101877.41
2022-10-13T22:39:15.201Z,101880.39
2022-10-13T22:41:43.970Z,101878.83
2022-10-13T22:44:12.818Z,101878.11
2022-10-13T22:46:41.027Z,101875.31
2022-10-13T22:49:13.610Z,101869.70
2022-10-13T22:51:41.725Z,101865.87
2022-10-13T22:54:10.049Z,101860.78
2022-10-13T22:56:38.018Z,101863.20
2022-10-13T22:59:08.266Z,101862.64
2022-10-13T23:01:36.491Z,101861.00
2022-10-13T23:04:04.994Z,101863.02
2022-10-13T23:06:34.525Z,101854.11
2022-10-13T23:09:06.630Z,101849.88
2022-10-13T23:11:35.559Z,101849.85
2022-10-13T23:14:06.491Z,101846.70
2022-10-13T23:16:34.872Z,101850.88
2022-10-13T23:19:03.819Z,101849.80
2022-10-13T23:21:32.034Z,101852.55
2022-10-13T23:24:02.795Z,101852.70
2022-10-13T23:26:31.612Z,101850.06
2022-10-13T23:28:59.768Z,101846.90
2022-10-13T23:31:28.833Z,101844.29
2022-10-13T23:33:57.508Z,101842.86
2022-10-13T23:36:28.652Z,101842.67
2022-10-13T23:39:06.963Z,101845.28
2022-10-13T23:41:38.005Z,101844.23
2022-10-13T23:44:05.973Z,101842.15
2022-10-13T23:46:34.140Z,101839.91
2022-10-13T23:49:02.111Z,101835.89
2022-10-13T23:51:30.592Z,101832.92
2022-10-13T23:53:59.243Z,101825.61
2022-10-13T23:56:27.712Z,101825.27
2022-10-13T23:58:55.731Z,101820.59
